Warning: Javascript must be enabled to use all the features on this page!


Page Loading - Please Wait...

* We've detected you're using a mobile device. Find our Next Generation Station Page here.
Click to hideNews Bulletins

Streamflow Measurements for California

Click to hide state-specific text


USGS 11455420 SACRAMENTO R A RIO VISTA CA


Solano County, California
Hydrologic Unit Code 18020163
Latitude  38°08'56.56", Longitude 121°41'20.20" NAD83
Gage datum 0 feet above NAVD88
Output formats
HTML table with channel data
HTML table without channel data
Tab-separated data with channel data
Tab-separated data without channel data
Graph of data
Reselect output format
Meas.
Number
  Date       Time Time
Datum
Measurement
Used?
  Who Measuring
Agency
Stream
flow
(ft3/s)
Gage
Height
(ft)
GH
Change
(ft)
Meas.
Duration
(hr)
Meas.
Rated
  Control Flow
Adjust.
Code
 
9552024-02-09 14:03:01PSTYesJEHATFIELD/AUSGS-408008.07 Poor NONE
9542024-02-09 13:54:51PSTYesJEHATFIELD/AUSGS-444008.02 Poor NONE
9532024-02-09 13:46:49PSTYesJEHATFIELD/AUSGS-473007.98 Poor NONE
9522024-02-09 13:38:40PSTYesJEHATFIELD/AUSGS-502007.93 Poor NONE
9512024-02-09 13:30:30PSTYesJEHATFIELD/AUSGS-529007.87 Poor NONE
9502024-02-09 13:22:08PSTYesJEHATFIELD/AUSGS-545007.81 Poor NONE
9492024-01-09 10:38:32PSTYesACONLEN/JEHAUSGS-942006.26 Poor NONE
9482024-01-09 10:28:56PSTYesACONLEN/JEHAUSGS-912006.16 Poor NONE
9472024-01-09 10:19:15PSTYesACONLEN/JEHAUSGS-888006.05 Poor NONE
9462024-01-09 10:09:56PSTYesACONLEN/JEHAUSGS-848005.95 Poor NONE
9452024-01-09 10:00:49PSTYesACONLEN/JEHAUSGS-807005.85 Poor NONE
9442024-01-09 09:51:54PSTYesACONLEN/JEHAUSGS-763005.74 Poor NONE
9432023-10-05 11:01:35PSTYesJEHATFIELD/AUSGS95005.68 Poor NONE
9422023-10-05 10:52:33PSTYesJEHATFIELD/AUSGS18505.72 Poor NONE
9412023-10-05 10:43:35PSTYesJEHATFIELD/AUSGS-44805.76 Poor NONE
9402023-10-05 10:34:36PSTYesJEHATFIELD/AUSGS-115005.78 Poor NONE
9392023-10-05 10:25:27PSTYesJEHATFIELD/AUSGS-175005.81 Poor NONE
9382023-10-05 10:16:14PSTYesJEHATFIELD/AUSGS-237005.83 Poor NONE
9372023-10-05 10:07:04PSTYesJEHATFIELD/AUSGS-284005.83 Poor NONE
9362023-10-05 09:57:26PSTYesJEHATFIELD/AUSGS-341005.84 Poor NONE
9352023-09-06 09:31:23PSTYesJEHATFIELD/CUSGS-514006.01 Poor NONE
9342023-09-06 09:22:35PSTYesJEHATFIELD/CUSGS-542005.99 Poor NONE
9332023-09-06 09:13:50PSTYesJEHATFIELD/CUSGS-586005.97 Poor NONE
9322023-09-06 09:05:01PSTYesJEHATFIELD/CUSGS-628005.94 Poor NONE
9312023-09-06 08:56:28PSTYesJEHATFIELD/CUSGS-637005.93 Poor NONE
9302023-09-06 08:48:09PSTYesJEHATFIELD/CUSGS-679005.88 Poor NONE
9292023-05-22 09:25:52PSTYesJEHATFIELD/BUSGS1370004.96 Poor NONE
9282023-05-22 09:16:40PSTYesJEHATFIELD/BUSGS1390005.08 Poor NONE
9272023-05-22 09:07:22PSTYesJEHATFIELD/BUSGS1380005.16 Poor NONE
9262023-05-22 08:58:12PSTYesJEHATFIELD/BUSGS1380005.26 Poor NONE
9252023-05-22 08:48:59PSTYesJEHATFIELD/BUSGS1370005.36 Poor NONE
9242023-05-22 08:39:34PSTYesJEHATFIELD/BUSGS1370005.45 Poor NONE
9232023-01-19 14:22:09PSTYesJEHATFIELD/AUSGS1300007.68 Poor NONE
9222023-01-19 14:11:42PSTYesJEHATFIELD/AUSGS1210007.79 Poor NONE
9212023-01-19 13:59:59PSTYesJEHATFIELD/AUSGS1100007.90 Poor NONE
9202023-01-19 13:49:43PSTYesJEHATFIELD/AUSGS991008.00 Poor NONE
9192023-01-19 13:39:35PSTYesJEHATFIELD/AUSGS898008.07 Poor NONE
9182023-01-19 13:29:42PSTYesJEHATFIELD/AUSGS793008.15 Poor NONE
9172023-01-19 13:18:36PSTYesJEHATFIELD/AUSGS678008.20 Poor NONE
9162023-01-19 13:07:39PSTYesJEHATFIELD/AUSGS582008.24 Poor NONE
9152023-01-19 12:57:24PSTYesJEHATFIELD/AUSGS482008.28 Poor NONE
9142023-01-19 12:46:35PSTYesJEHATFIELD/AUSGS399008.30 Poor NONE
9132022-08-25 10:09PSTYesJEHATFIELD/MUSGS644002.89 Poor NONE
9122022-08-25 10:00:24PSTYesJEHATFIELD/MUSGS695002.86 Poor NONE
9112022-08-25 09:51:35PSTYesJEHATFIELD/MUSGS740002.85 Poor NONE
9102022-08-25 09:42:36PSTYesJEHATFIELD/MUSGS781002.84 Poor NONE
9092022-08-25 09:33:23PSTYesJEHATFIELD/MUSGS814002.87 Poor NONE
9082022-08-25 09:23:23PSTYesJEHATFIELD/MUSGS839002.90 Poor NONE
9072022-05-17 11:30:24PSTYesJEHATFIELD/HUSGS918002.05 Poor NONE
9062022-05-17 10:13:14PSTYesJEHATFIELD/HUSGS1040002.70 Poor NONE
9052022-05-17 10:03:07PSTYesJEHATFIELD/HUSGS1060002.80 Poor NONE
9042022-03-01 11:06:55PSTYesJEHATFIELD/HUSGS-1140004.94 Poor NONE
9032022-03-01 10:52:01PSTYesJEHATFIELD/HUSGS-952004.75 Poor NONE
9022022-03-01 10:38:39PSTYesJEHATFIELD/HUSGS-748004.57 Poor NONE
9012022-03-01 10:24:46PSTYesJEHATFIELD/HUSGS-451004.38 Poor NONE
9002022-03-01 10:12:02PSTYesJEHATFIELD/HUSGS-238004.20 Poor NONE
8992022-03-01 09:59:50PSTYesJEHATFIELD/HUSGS59004.01 Poor NONE
8982022-01-07 13:07:37PSTYesJEHATFIELD/HUSGS908004.24 Poor NONE
8972022-01-07 12:58:34PSTYesJEHATFIELD/HUSGS926004.27 Poor NONE
8962022-01-07 12:49:30PSTYesJEHATFIELD/HUSGS956004.30 Poor NONE
8952022-01-07 12:40:35PSTYesJEHATFIELD/HUSGS978004.34 Poor NONE
8942022-01-07 12:31:32PSTYesJEHATFIELD/HUSGS998004.38 Poor NONE
8932022-01-07 12:22:19PSTYesJEHATFIELD/HUSGS1010004.43 Poor NONE
8922021-09-01 11:48:18PSTYesJEHATFIELD/EUSGS-834005.87 Poor NONE
8912021-09-01 11:38:11PSTYesJEHATFIELD/EUSGS-858005.84 Poor NONE
8902021-09-01 11:27:03PSTYesJEHATFIELD/EUSGS-866005.79 Poor NONE
8892021-09-01 11:15:16PSTYesJEHATFIELD/EUSGS-889005.72 Poor NONE
8882021-09-01 11:02:28PSTYesJEHATFIELD/EUSGS-893005.66 Poor NONE
8872021-09-01 10:51:21PSTYesJEHATFIELD/EUSGS-875005.59 Poor NONE
8862021-06-03 11:10:30PSTYesEDUBER/JEHATUSGS-313005.60 Poor NONE
8852021-06-03 11:03:12PSTYesEDUBER/JEHATUSGS-368005.63 Poor NONE
8842021-06-03 10:55:50PSTYesEDUBER/JEHATUSGS-412005.66 Poor NONE
8832021-06-03 10:48:18PSTYesEDUBER/JEHATUSGS-465005.68 Poor NONE
8822021-06-03 10:40:32PSTYesEDUBER/JEHATUSGS-507005.70 Poor NONE
8812021-06-03 10:32:31PSTYesEDUBER/JEHATUSGS-549005.71 Poor NONE
8802021-03-31 10:49:26PSTYesjehatfield/eUSGS987002.82 Poor NONE
8792021-03-31 10:41:18PSTYesjehatfield/eUSGS987002.89 Poor NONE
8782021-03-31 10:33:06PSTYesjehatfield/eUSGS1020002.97 Poor NONE
8772021-03-31 10:24:51PSTYesjehatfield/eUSGS1020003.04 Poor NONE
8762021-03-31 10:16:46PSTYesjehatfield/eUSGS1040003.12 Poor NONE
8752021-03-31 10:08:31PSTYesjehatfield/eUSGS1040003.20 Poor NONE
8742021-01-15 15:05:36PSTYesJEH/EBDUSGS-1060005.91 Poor NONE
8732021-01-15 14:56:55PSTYesJEH/EBDUSGS-1070005.85 Poor NONE
8722021-01-15 14:48:07PSTYesJEH/EBDUSGS-1070005.77 Poor NONE
8712021-01-15 14:39:25PSTYesJEH/EBDUSGS-1060005.68 Poor NONE
8702020-11-12 13:44:27PSTYesJEH/EBDUSGS-673005.98 Poor NONE
8692020-11-12 13:30:27PSTYesJEH/EBDUSGS-744005.98 Poor NONE
8682020-11-12 13:12:37PSTYesJEH/EBDUSGS-797005.94 Poor NONE
8672020-11-12 12:57:50PSTYesJEH/EBDUSGS-865005.88 Poor NONE
8662020-11-12 12:43:53PSTYesJEH/EBDUSGS-911005.82 Poor NONE
8652020-11-12 12:31:46PSTYesJEH/EBDUSGS-938005.75 Poor NONE
8642020-11-12 11:42:59PSTYesJEH/EBDUSGS-1030005.42 Poor NONE
8632020-11-12 11:26:21PSTYesJEH/EBDUSGS-1060005.29 Poor NONE
8622020-11-12 11:13:06PSTYesJEH/EBDUSGS-1060005.18 Poor NONE
8612020-11-12 11:00:53PSTYesJEH/EBDUSGS-1040005.07 Poor NONE
8602020-11-12 10:48:42PSTYesJEH/EBDUSGS-1040004.95 Poor NONE
8592020-11-12 10:36:29PSTYesJEH/EBDUSGS-1020004.82 Poor NONE
8582020-05-12 14:26:01PSTYesAC/NVBUSGS792002.58 Poor NONE
8572020-05-12 14:13:07PSTYesAC/NVBUSGS801002.63 Poor NONE
8562020-05-12 13:59:57PSTYesAC/NVBUSGS847002.68 Poor NONE
8552020-05-12 13:44:09PSTYesAC/NVBUSGS863002.82 Poor NONE
8542020-05-12 13:28:06PSTYesAC/NVBUSGS896002.95 Poor NONE
8532020-05-12 13:13:49PSTYesAC/NVBUSGS897003.03 Poor NONE
8522020-01-13 13:36:55PSTYesJEH/NVBUSGS-595005.07 Poor NONE
8512020-01-13 13:23:31PSTYesJEH/NVBUSGS-456004.93 Poor NONE
8502020-01-13 13:09:39PSTYesJEH/NVBUSGS-249004.77 Poor NONE
8492020-01-13 12:55:22PSTYesJEH/NVBUSGS-60604.58 Poor NONE
8482020-01-13 12:40:49PSTYesJEH/NVBUSGS152004.40 Poor NONE
8472020-01-13 12:27:18PSTYesJEH/NVBUSGS294004.22 Poor NONE
8422019-12-18 12:20:51PSTYesJH/NSUSGS870005.17 Poor NONE
8462019-12-18 12:18:16PSTYesJH/NSUSGS852005.20 Poor NONE
8452019-12-18 12:00:41PSTYesJH/NSUSGS700005.37 Poor NONE
8412019-12-18 12:00:10PSTYesJH/NSUSGS730005.37 Poor NONE
8402019-12-18 11:41:59PSTYesJH/NSUSGS556005.54 Poor NONE
8442019-12-18 11:38:29PSTYesJH/NSUSGS498005.57 Poor NONE
8432019-12-18 11:21:24PSTYesJH/NSUSGS307005.75 Poor NONE
8392019-12-18 11:19:24PSTYesJH/NSUSGS265005.77 Poor NONE
8382019-11-13 13:01:36PSTYesJH/ZHUSGS-1010005.97 Poor NONE
8372019-11-13 12:50:55PSTYesJH/ZHUSGS-1010005.86 Poor NONE
8362019-11-13 12:37:29PSTYesJH/ZHUSGS-938005.72 Poor NONE
8352019-11-13 12:19:53PSTYesJH/ZHUSGS-849005.51 Poor NONE
8342019-11-13 11:51:14PSTYesJH/ZHUSGS-617005.19 Poor NONE
8332019-11-13 11:32:01PSTYesJH/ZHUSGS-430004.99 Poor NONE
8322019-09-11 12:02:46PSTYesJH/ZHUSGS-785004.57 Fair NONE
8312019-09-11 11:48:04PSTYesJH/ZHUSGS-697004.38 Fair NONE
8302019-09-11 11:31:22PSTYesJH/ZHUSGS-577004.17 Fair NONE
8292019-09-11 11:13:17PSTYesJH/ZHUSGS-357003.95 Fair NONE
8282019-09-11 10:56:09PSTYesJH/ZHUSGS-184003.70 Fair NONE
8272019-09-11 10:40:40PSTYesJH/ZHUSGS63303.45 Fair NONE
8262019-08-14 14:19:10PSTYesRPJ, NVBUSGS-892005.18 Fair NONE
8252019-08-14 14:04:31PSTYesRPJ, NVBUSGS-907005.06 Fair NONE
8242019-08-14 13:48:14PSTYesRPJ, NVBUSGS-891004.90 Fair NONE
8232019-08-14 13:33:44PSTYesRPJ, NVBUSGS-886004.76 Fair NONE
8222019-07-10 13:00:08PSTYesJH/MI/TDUSGS772004.61 Fair NONE
8212019-07-10 12:46:20PSTYesJH/MI/TDUSGS692004.73 Fair NONE
8202019-07-10 12:32:05PSTYesJH/MI/TDUSGS545004.85 Fair NONE
8192019-07-10 12:17:48PSTYesJH/MI/TDUSGS430004.99 Fair NONE
8182019-07-10 12:03:13PSTYesJH/MI/TDUSGS249005.13 Fair NONE
8172019-07-10 11:49:43PSTYesJH/MI/TDUSGS113005.26 Fair NONE
8162019-04-03 10:48:39PSTYesJH, ACUSGS606004.85 Good NONE
8152019-04-03 10:38:20PSTYesJH, ACUSGS701004.71 Good NONE
8142019-04-03 10:28:15PSTYesJH, ACUSGS759004.63 Good NONE
8132019-04-03 10:16:16PSTYesJH, ACUSGS881004.51 Good NONE
8122019-04-03 10:02:37PSTYesJH, ACUSGS917004.45 Good NONE
8112019-04-03 09:50:11PSTYesJH, ACUSGS988004.39 Good NONE
8102019-03-13 10:01:12PSTYesJH/ZHUSGS1460005.93 Fair NONE
8092019-03-13 09:54:01PSTYesJH/ZHUSGS1430005.97 Fair NONE
8082019-03-13 09:46:06PSTYesJH/ZHUSGS1430006.00 Fair NONE
8072019-03-13 09:37:45PSTYesJH/ZHUSGS1430006.05 Fair NONE
8062019-03-13 09:30:20PSTYesJH/ZHUSGS1380006.10 Fair NONE
8052019-03-13 09:23:34PSTYesJH/ZHUSGS1340006.13 Fair NONE
8042019-02-06 12:45:15PSTYesMI, JHUSGS79205.25 Good NONE
8032019-02-06 12:30:41PSTYesMI, JHUSGS318005.08 Good NONE
8022019-02-06 12:16:06PSTYesMI, JHUSGS361004.90 Good NONE
8012019-02-06 12:02:44PSTYesMI, JHUSGS582004.77 Good NONE
8002019-02-06 11:08:42PSTYesMI, JHUSGS771004.51 Good NONE
7992019-02-06 10:59:55PSTYesMI, JHUSGS969004.51 Good NONE
7932018-11-01 10:57:14PSTYesJH/MIUSGS-739005.30 Fair NONE
7982018-11-01 10:45:48PSTYesJH/MIUSGS-700005.52 Fair NONE
7972018-11-01 10:37:34PSTYesJH/MIUSGS-711005.48 Fair NONE
7962018-11-01 10:29:26PSTYesJH/MIUSGS-714005.45 Fair NONE
7952018-11-01 10:20:58PSTYesJH/MIUSGS-741005.41 Fair NONE
7942018-11-01 10:11:51PSTYesJH/MIUSGS-751005.36 Fair NONE
7922018-08-30 11:47:11PSTYesJH/MIUSGS778003.18 Good NONE
7912018-08-30 11:39:14PSTYesJH/MIUSGS813003.22 Good NONE
7902018-08-30 11:31:13PSTYesJH/MIUSGS816003.27 Good NONE
7892018-08-30 11:23:21PSTYesJH/MIUSGS839003.31 Good NONE
7882018-08-30 11:15:11PSTYesJH/MIUSGS841003.36 Good NONE
7872018-08-30 11:07:23PSTYesJH/MIUSGS874003.40 Good NONE
7862018-07-10 12:02PSTYesJH/MIUSGS-869004.82 Good NONE
7852018-07-10 11:54:35PSTYesJH/MIUSGS-869004.75 Good NONE
7842018-07-10 11:46:55PSTYesJH/MIUSGS-867004.67 Good NONE
7832018-07-10 11:39:11PSTYesJH/MIUSGS-840004.59 Good NONE
7822018-07-10 11:30:27PSTYesJH/MIUSGS-798004.480.070.10Good NONE
7812018-07-10 11:22:12PSTYesJH/MIUSGS-748004.390.07 Good NONE
7802018-05-10 10:59:59PSTYesJH, MI, CHUSGS-664005.35 Good NONE
7792018-05-10 10:50PSTYesJH, MI, CHUSGS-682005.33 Good NONE
7782018-05-10 10:38:40PSTYesJH, MI, CHUSGS-704005.27 Good NONE
7772018-05-10 10:26:59PSTYesJH, MI, CHUSGS-721005.22 Good NONE
7762018-05-10 10:15:09PSTYesJH, MI, CHUSGS-735005.15 Good NONE
7752018-05-10 10:04:23PSTYesJH, MI, CHUSGS-731005.09 Good NONE
7742018-03-19 11:47PSTYesCC, CHUSGS808002.88 Good NONE
7732018-03-19 11:31:14PSTYesCC, CHUSGS853002.90 Good NONE
7722018-03-19 11:16:12PSTYesCC, CHUSGS914002.95 Good NONE
7712018-03-19 10:56:41PSTYesCC, CHUSGS937003.04 Good NONE
7702018-03-19 10:43:53PSTYesCC, CHUSGS967003.13 Good NONE
7692018-03-19 10:29:33PSTYesCC, CHUSGS1010003.23 Good NONE
7682018-01-24 12:04:02PSTYesRPJ,NVBUSGS1030004.75 Good NONE
7672018-01-24 11:48:21PSTYesRPJ,NVBUSGS922004.90 Good NONE
7662018-01-24 11:31:24PSTYesRPJ,NVBUSGS860005.05 Good NONE
7652018-01-24 11:10:58PSTYesRPJ,NVBUSGS649005.26 Good NONE
7642018-01-24 10:50:23PSTYesRPJ,NVBUSGS385005.47 Good NONE
7632018-01-24 10:34:34PSTYesRPJ,NVBUSGS162005.62 Good NONE
7622017-11-16 13:12:19PSTYesBTG/CCH/MLUSGS-985006.49 Good NONE
7612017-11-16 13:01:49PSTYesBTG/CCH/MLUSGS-1010006.43 Good NONE
7602017-11-16 12:42:40PSTYesBTG/CCH/MLUSGS-1050006.31 Good NONE
7592017-11-16 12:31:37PSTYesBTG/CCH/MLUSGS-1070006.23 Good NONE
7582017-11-16 12:19PSTYesBTG/CCH/MLUSGS-1080006.14 Good NONE
7572017-11-16 12:05:38PSTYesBTG/CCH/MLUSGS-1080006.03 Good NONE
7562017-09-21 11:37:38PSTYesNS, CHUSGS545003.51 Good NONE
7552017-09-21 11:24:36PSTYesNS, CHUSGS678003.39 Good NONE
7542017-09-21 11:10:23PSTYesNS, CHUSGS738003.34 Good NONE
7532017-09-21 10:57:07PSTYesNS, CHUSGS802003.33 Good NONE
7522017-09-21 10:44:15PSTYesNS, CHUSGS861003.36 Good NONE
7512017-09-21 10:26:22PSTYesNS, CHUSGS930003.44 Good NONE
7502017-07-20 11:42:28PSTYesCH/BGUSGS-908004.93 Good NONE
7492017-07-20 11:26PSTYesCH/BGUSGS-867004.76 Good NONE
7482017-07-20 11:06:55PSTYesCH/BGUSGS-807004.54 Good NONE
7472017-07-20 10:48:49PSTYesCH/BGUSGS-679004.33 Good NONE
7462017-07-20 10:33:33PSTYesCH/BGUSGS-557004.16 Good NONE
7452017-07-20 10:19:02PSTYesCH/BGUSGS-354003.99 Good NONE
7442017-07-20 10:05:43PSTYesCH/BGUSGS-205003.81 Good NONE
7432017-07-20 09:51:59PSTYesCH/BGUSGS29703.60 Good NONE
7422017-05-15 12:41:54PSTYesRJ/CHUSGS1090003.22 Good NONE
7412017-05-15 12:28:40PSTYesRJ/CHUSGS1090003.29 Good NONE
7402017-05-15 12:14:29PSTYesRJ/CHUSGS1130003.38 Good NONE
7392017-05-15 11:59:36PSTYesRJ/CHUSGS1140003.49 Good NONE
7382017-05-15 11:44:28PSTYesRJ/CHUSGS1170003.61 Good NONE
7372017-05-15 11:29:04PSTYesRJ/CHUSGS1180003.74 Good NONE
7362017-02-28 16:48:59PSTYesNS,CHUSGS1910007.89 Good NONE
7352017-02-28 16:32:57PSTYesNS,CHUSGS1880007.96 Good NONE
7342017-02-28 16:18:10PSTYesNS,CHUSGS1800007.98 Good NONE
7332017-02-28 16:05:45PSTYesNS,CHUSGS1820007.99 Good NONE
7322017-02-28 15:33:59PSTYesNS,CHUSGS1690007.92 Good NONE
7312017-02-28 15:14:08PSTYesNS,CHUSGS1760007.84 Fair NONE
7302017-02-28 14:58:23PSTYesNS,CHUSGS1740007.73 Fair NONE
7292017-02-28 14:44:04PSTYesNS,CHUSGS1780007.60 Fair NONE
7282017-02-14 13:02:42PSTYesBS/WFUSGS2770006.94 Fair NONE
7272017-02-14 12:49:31PSTYesBS/WFUSGS2850006.94 Fair NONE
7262017-02-14 12:36:07PSTYesBS/WFUSGS2840006.96 Fair NONE
7252017-02-14 12:21:44PSTYesBS/WFUSGS2890006.97 Fair NONE
7242017-02-14 12:07:27PSTYesBS/WFUSGS2750007.00 Fair NONE
7232017-02-14 11:55:21PSTYesBS/WFUSGS2930007.02 Fair NONE
7222017-01-14 11:45:31PSTYestv,rjUSGS2220006.42 Good NONE
7212017-01-14 11:32:38PSTYestv,rjUSGS2320006.41 Good NONE
7202017-01-14 11:18:25PSTYestv,rjUSGS2290006.41 Good NONE
7192017-01-14 11:05:03PSTYestv,rjUSGS2330006.44 Good NONE
7182017-01-14 10:43:30PSTYestv,rjUSGS2270006.48 Good NONE
7172017-01-14 10:29:28PSTYestv,rjUSGS2350006.53 Good NONE
7162017-01-14 09:58:54PSTYestv,rjUSGS2320006.66 Good NONE
7152017-01-14 09:43:01PSTYestv,rjUSGS2350006.72 Good NONE
7142016-12-28 13:06:56PSTYesRJ,CHUSGS-709006.33 Good NONE
7132016-12-28 12:48:06PSTYesRJ,CHUSGS-720006.18 Good NONE
7122016-12-28 12:28:21PSTYesRJ,CHUSGS-701005.98 Good NONE
7112016-12-28 12:09:47PSTYesRJ,CHUSGS-671005.79 Good NONE
7102016-12-28 11:52:16PSTYesRJ,CHUSGS-583005.59 Good NONE
7092016-12-28 11:32:43PSTYesRJ,CHUSGS-489005.37 Good NONE
7082016-10-20 12:56:13PSTYesCH, NVBUSGS613003.46 Good NONE
7072016-10-20 12:45:04PSTYesCH, NVBUSGS687003.43 Good NONE
7062016-10-20 12:32:42PSTYesCH, NVBUSGS744003.42 Good NONE
7052016-10-20 12:18:21PSTYesCH, NVBUSGS794003.43 Good NONE
7042016-10-20 12:04:47PSTYesCH, NVBUSGS849003.45 Good NONE
7032016-10-20 11:51:37PSTYesCH, NVBUSGS874003.54 Good NONE
7022016-10-20 11:39:13PSTYesCH, NVBUSGS899003.60 Good NONE
7012016-10-20 11:27:34PSTYesCH, NVBUSGS916003.67 Good NONE
7002016-06-30 14:06:52PSTYesRJ,NVUSGS40505.24 Good NONE
6992016-06-30 13:49:22PSTYesRJ,NVUSGS-147005.36 Good NONE
6982016-06-30 13:30:09PSTYesRJ,NVUSGS-329005.45 Good NONE
6972016-06-30 13:11:08PSTYesRJ,NVUSGS-476005.50 Good NONE
6962016-06-30 12:52:43PSTYesRJ,NVUSGS-590005.52 Good NONE
6952016-06-30 12:33:04PSTYesRJ,NVUSGS-661005.50 Fair NONE
6942016-03-29 13:06:34PSTYesRJ, CHUSGS1080003.33 Good NONE
6932016-03-29 12:52:33PSTYesRJ, CHUSGS1080003.41 Good NONE
6922016-03-29 12:38:29PSTYesRJ, CHUSGS1120003.51 Good NONE
6912016-03-29 12:21:34PSTYesRJ, CHUSGS1120003.63 Good NONE
6902016-03-29 12:02:22PSTYesRJ, CHUSGS1150003.78 Good NONE
6892016-03-29 11:42:07PSTYesRJ, CHUSGS1160003.96 Good NONE
6882016-01-07 12:45:08PSTYesCCH,WBFUSGS-881007.05 Fair NONE
6872016-01-07 12:32:21PSTYesCCH,WBFUSGS-909007.00 Fair NONE
6862016-01-07 12:15:17PSTYesCCH,WBFUSGS-964006.91 Fair NONE
6852016-01-07 11:58:01PSTYesCCH,WBFUSGS-997006.81 Fair NONE
6842016-01-07 11:40:43PSTYesCCH,WBFUSGS-1030006.69 Fair NONE
6832016-01-07 11:20:56PSTYesCCH,WBFUSGS-1040006.54 Fair NONE
6822015-10-27 13:22:04PSTYesET, CHUSGS-1210006.36 Good NONE
6812015-10-27 13:04:20PSTYesET, CHUSGS-1230006.22 Poor NONE
6802015-10-27 12:46:43PSTYesET, CHUSGS-1230006.05 Fair NONE
6792015-10-27 12:29:39PSTYesET, CHUSGS-1210005.88 Good NONE
6782015-10-27 12:08:18PSTYesET, CHUSGS-1150005.63 Good NONE
6772015-10-27 11:43:24PSTYesET, CHUSGS-998005.27 Fair NONE
6762015-07-14 11:15:46PSTYesAD,CHUSGS47803.55 Poor NONE
6752015-07-14 11:04:07PSTYesAD,CHUSGS230003.34 Poor NONE
6742015-07-14 10:52:21PSTYesAD,CHUSGS374003.14 Poor NONE
6732015-07-14 10:40:47PSTYesAD,CHUSGS514002.96 Good NONE
6722015-07-14 10:29:06PSTYesAD,CHUSGS605002.82 Good NONE
6712015-07-14 10:17:21PSTYesAD,CHUSGS705002.73 Excellent NONE
6702015-07-14 10:05:24PSTYesAD,CHUSGS752002.71 Excellent NONE
6692015-07-14 09:51:22PSTYesAD,CHUSGS806002.70 Excellent NONE
6682015-04-03 11:13PSTYesND/CHUSGS-14300 PoorUnspecifedNONE
6672015-04-03 11:04PSTYesND/CHUSGS1600 PoorUnspecifedNONE
6662015-04-03 10:53PSTYesND/CHUSGS13200 PoorUnspecifedNONE
6652015-04-03 10:43PSTYesND/CHUSGS28800 GoodUnspecifedNONE
6642015-04-03 10:30PSTYesND/CHUSGS38600 ExcellentUnspecifedNONE
6632015-04-03 10:15PSTYesND/CHUSGS53500 ExcellentUnspecifedNONE
6622015-01-06 03:19PSTYesKM/MVCUSGS-97100 UnspecifiedUnspecifedNONE
6612015-01-06 03:05PSTYesKM/MVCUSGS-98300 UnspecifiedUnspecifedNONE
6602015-01-06 02:49PSTYesKM/MVCUSGS-98300 UnspecifiedUnspecifedNONE
6592015-01-06 02:36PSTYesKM/MVCUSGS-99100 UnspecifiedUnspecifedNONE
6582015-01-06 02:13PSTYesKM/MVCUSGS-95400 UnspecifiedUnspecifedNONE
6572015-01-06 01:54PSTYesKM/MVCUSGS-86000 UnspecifiedUnspecifedNONE
6562015-01-06 01:41PSTYesKM/MVCUSGS-78000 UnspecifiedUnspecifedNONE
6552015-01-06 01:27PSTYesKM/MVCUSGS-63900 UnspecifiedUnspecifedNONE
6542015-01-06 01:13PSTYesKM/MVCUSGS-47800 UnspecifiedUnspecifedNONE
6532015-01-06 00:58PSTYesKM/MVCUSGS-11900 PoorUnspecifedNONE
6522015-01-06 00:23PSTYesKM/MVCUSGS28200 PoorUnspecifedNONE
6512015-01-05 23:48PSTYesKM/MVCUSGS64700 UnspecifiedUnspecifedNONE
6502015-01-05 23:31PSTYesKM/MVCUSGS72700 UnspecifiedUnspecifedNONE
6492015-01-05 23:19PSTYesKM/MVCUSGS80000 UnspecifiedUnspecifedNONE
6482015-01-05 23:02PSTYesKM/MVCUSGS85900 UnspecifiedUnspecifedNONE
6472015-01-05 22:48PSTYesKM/MVCUSGS89300 UnspecifiedUnspecifedNONE
6462015-01-05 22:31PSTYesKM/MVCUSGS93900 UnspecifiedUnspecifedNONE
6452015-01-05 22:20PSTYesKM/MVCUSGS96600 UnspecifiedUnspecifedNONE
6442015-01-05 22:02PSTYesKM/MVCUSGS99200 UnspecifiedUnspecifedNONE
6432015-01-05 21:50PSTYesKM/MVCUSGS102000 UnspecifiedUnspecifedNONE
6422015-01-05 21:32PSTYesKM/MVCUSGS105000 UnspecifiedUnspecifedNONE
6412015-01-05 21:17PSTYesKM/MVCUSGS106000 UnspecifiedUnspecifedNONE
6402015-01-05 20:56PSTYesKM/MVCUSGS110000 UnspecifiedUnspecifedNONE
6392015-01-05 19:21PSTYesKM/MVCUSGS123000 UnspecifiedUnspecifedNONE
6382015-01-05 19:10PSTYesKM/MVCUSGS122000 UnspecifiedUnspecifedNONE
6372015-01-05 18:59PSTYesKM/MVCUSGS124000 UnspecifiedUnspecifedNONE
6362015-01-05 18:43PSTYesKM/MVCUSGS122000 UnspecifiedUnspecifedNONE
6352015-01-05 18:21PSTYesKM/MVCUSGS120000 UnspecifiedUnspecifedNONE
6342015-01-05 18:03PSTYesKM/MVCUSGS114000 UnspecifiedUnspecifedNONE
6332014-12-02 17:48PSTYesND/ETUSGS99600 PoorUnspecifedNONE
6322014-12-02 17:25PSTYesND/ETUSGS102000 PoorUnspecifedNONE
6312014-12-02 17:14PSTYesND/ETUSGS106000 PoorUnspecifedNONE
6302014-12-02 16:57PSTYesND/ETUSGS110000 PoorUnspecifedNONE
6292014-12-02 16:44PSTYesND/ETUSGS112000 PoorUnspecifedNONE
6282014-12-02 16:28PSTYesND/ETUSGS113000 PoorUnspecifedNONE
6272014-12-02 16:14PSTYesND/ETUSGS115000 PoorUnspecifedNONE
6262014-12-02 15:58PSTYesND/ETUSGS117000 PoorUnspecifedNONE
6252014-12-02 15:43PSTYesND/ETUSGS117000 PoorUnspecifedNONE
6242014-12-02 15:25PSTYesND/ETUSGS115000 PoorUnspecifedNONE
6232014-12-02 15:07PSTYesND/ETUSGS110000 PoorUnspecifedNONE
6222014-12-02 14:23PSTYesND/ETUSGS77700 PoorUnspecifedNONE
6212014-12-02 14:09PSTYesND/ETUSGS53200 PoorUnspecifedNONE
6202014-12-02 13:48PSTYesND/ETUSGS24600 PoorUnspecifedNONE
6192014-12-02 13:29PSTYesND/ETUSGS-3510 PoorUnspecifedNONE
6182014-12-02 12:58PSTYesND/ETUSGS-39400 PoorUnspecifedNONE
6172014-12-02 12:40PSTYesND/ETUSGS-61700 PoorUnspecifedNONE
6162014-12-02 12:14PSTYesND/ETUSGS-75100 PoorUnspecifedNONE
6152014-12-02 11:32PSTYesND/ETUSGS-96700 PoorUnspecifedNONE
6142014-12-02 11:10PSTYesND/ETUSGS-102000 PoorUnspecifedNONE
6132014-12-02 10:54PSTYesND/ETUSGS-107000 PoorUnspecifedNONE
6112014-10-17 15:30PSTYesET/DAUSGS932004.58 UnspecifiedUnspecifedNONE
6102014-10-17 15:12PSTYesET/DAUSGS915004.72 UnspecifiedUnspecifedNONE
6092014-10-17 14:59PSTYesET/DAUSGS873004.88 UnspecifiedUnspecifedNONE
6082014-10-17 14:38PSTYesET/DAUSGS766005.04 UnspecifiedUnspecifedNONE
6072014-10-17 14:25PSTYesET/DAUSGS656005.20 UnspecifiedUnspecifedNONE
6062014-10-17 14:09PSTYesET/DAUSGS495005.34 UnspecifiedUnspecifedNONE
6052014-10-17 13:53PSTYesET/DAUSGS309005.51 UnspecifiedUnspecifedNONE
6042014-10-17 13:37PSTYesET/DAUSGS110005.64 UnspecifiedUnspecifedNONE
6032014-10-17 13:23PSTYesET/DAUSGS-44905.76 UnspecifiedUnspecifedNONE
6022014-10-17 13:08PSTYesET/DAUSGS-193005.85 UnspecifiedUnspecifedNONE
6012014-10-17 12:45PSTYesET/DAUSGS-381005.96 UnspecifiedUnspecifedNONE
6002014-10-17 12:28PSTYesET/DAUSGS-497006.00 UnspecifiedUnspecifedNONE
5992014-10-17 12:11PSTYesET/DAUSGS-598006.02 UnspecifiedUnspecifedNONE
5982014-10-17 11:58PSTYesET/DAUSGS-664006.02 UnspecifiedUnspecifedNONE
5972014-10-17 11:43PSTYesET/DAUSGS-743005.99 UnspecifiedUnspecifedNONE
5962014-10-17 11:24PSTYesET/DAUSGS-792005.95 UnspecifiedUnspecifedNONE
5952014-10-17 11:00PSTYesET/DAUSGS-881005.86 UnspecifiedUnspecifedNONE
5942014-10-17 10:39PSTYesET/DAUSGS-929005.78 UnspecifiedUnspecifedNONE
5932014-08-05 14:32PSTYesET/JBDUSGS794004.17 UnspecifiedUnspecifedNONE
5922014-08-05 14:11PSTYesET/JBDUSGS726004.30 UnspecifiedUnspecifedNONE
5912014-08-05 13:53PSTYesET/JBDUSGS646004.44 UnspecifiedUnspecifedNONE
5902014-08-05 13:36PSTYesET/JBDUSGS506004.56 UnspecifiedUnspecifedNONE
5892014-08-05 13:20PSTYesET/JBDUSGS385004.68 UnspecifiedUnspecifedNONE
5882014-08-05 13:00PSTYesET/JBDUSGS194004.78 UnspecifiedUnspecifedNONE
5872014-08-05 12:43PSTYesET/JBDUSGS23704.89 UnspecifiedUnspecifedNONE
5862014-08-05 12:23PSTYesET/JBDUSGS-140004.97 UnspecifiedUnspecifedNONE
5852014-08-05 12:08PSTYesET/JBDUSGS-270005.04 UnspecifiedUnspecifedNONE
5842014-08-05 11:49PSTYesET/JBDUSGS-387005.06 UnspecifiedUnspecifedNONE
5832014-08-05 11:32PSTYesET/JBDUSGS-463005.07 UnspecifiedUnspecifedNONE
5822014-08-05 11:08PSTYesET/JBDUSGS-606005.06 UnspecifiedUnspecifedNONE
5812014-08-05 10:39PSTYesET/JBDUSGS-699005.03 UnspecifiedUnspecifedNONE
5802014-08-05 10:19PSTYesET/JBDUSGS-868004.99 UnspecifiedUnspecifedNONE
5792014-08-05 09:40PSTYesET/JBDUSGS-843004.82 UnspecifiedUnspecifedNONE
5782014-08-05 09:26PSTYesET/JBDUSGS-848004.74 UnspecifiedUnspecifedNONE
5772014-08-05 09:10PSTYesET/JBDUSGS-846004.64 UnspecifiedUnspecifedNONE
5762014-08-05 08:57PSTYesET/JBDUSGS-820004.52 UnspecifiedUnspecifedNONE
5752014-07-16 07:56PSTYesNV/CHUSGS521005.76 UnspecifiedUnspecifedNONE
5742014-07-16 07:43PSTYesNV/CHUSGS259005.94 UnspecifiedUnspecifedNONE
5732014-07-16 07:24PSTYesNV/CHUSGS39606.15 UnspecifiedUnspecifedNONE
5722014-07-16 07:11PSTYesNV/CHUSGS-204006.31 UnspecifiedUnspecifedNONE
5712014-07-16 06:55PSTYesNV/CHUSGS-356006.44 UnspecifiedUnspecifedNONE
5702014-07-16 06:43PSTYesNV/CHUSGS-496006.53 UnspecifiedUnspecifedNONE
5692014-07-16 06:26PSTYesNV/CHUSGS-605006.58 UnspecifiedUnspecifedNONE
5682014-07-16 06:17PSTYesNV/CHUSGS-709006.60 UnspecifiedUnspecifedNONE
5672014-03-13 14:43PSTYesND/JDUSGS10800 UnspecifiedUnspecifedNONE
5662014-03-13 14:28PSTYesND/JDUSGS-10800 UnspecifiedUnspecifedNONE
5652014-03-13 14:12PSTYesND/JDUSGS-27300 UnspecifiedUnspecifedNONE
5642014-03-13 13:56PSTYesND/JDUSGS-42200 UnspecifiedUnspecifedNONE
5632014-03-13 13:44PSTYesND/JDUSGS-52000 UnspecifiedUnspecifedNONE
5622014-03-13 13:18PSTYesND/JDUSGS-66600 UnspecifiedUnspecifedNONE
5612014-03-13 12:34PSTYesND/JDUSGS-83300 UnspecifiedUnspecifedNONE
5602014-03-13 12:18PSTYesND/JDUSGS-88200 UnspecifiedUnspecifedNONE
5592014-03-13 12:02PSTYesND/JDUSGS-90500 UnspecifiedUnspecifedNONE
5582014-03-13 11:45PSTYesND/JDUSGS-93000 UnspecifiedUnspecifedNONE
5572014-03-13 11:31PSTYesND/JDUSGS-93600 UnspecifiedUnspecifedNONE
5562014-03-13 11:16PSTYesND/JDUSGS-91400 UnspecifiedUnspecifedNONE
5552014-03-13 10:53PSTYesND/JDUSGS-87300 UnspecifiedUnspecifedNONE
5542014-03-13 10:29PSTYesND/JDUSGS-72900 UnspecifiedUnspecifedNONE
5532014-03-13 10:01PSTYesND/JDUSGS-48200 UnspecifiedUnspecifedNONE
5522014-03-13 09:47PSTYesND/JDUSGS-24400 UnspecifiedUnspecifedNONE
5512013-05-30 15:09PSTYesxxxUSGS700002.06 Unspecified NONE
5502013-05-30 14:47PSTYesxxxUSGS827002.07 Unspecified NONE
5492013-05-30 10:19PSTYesxxxUSGS1120004.49 Unspecified NONE
5482013-05-30 09:54PSTYesxxxUSGS1030004.80 Unspecified NONE
5472011-11-08 19:27PSTYesxxxUSGS964002.58 Unspecified NONE
5462011-11-08 19:09PSTYesxxxUSGS996002.76 Unspecified NONE
5452011-11-08 18:47PSTYesxxxUSGS1030002.93 Unspecified NONE
5442011-11-08 18:27PSTYesxxxUSGS1050003.13 Unspecified NONE
5432011-11-08 18:07PSTYesxxxUSGS1080003.31 Unspecified NONE
5422011-11-08 17:47PSTYesxxxUSGS1090003.49 Unspecified NONE
5412011-11-08 17:22PSTYesxxxUSGS1100003.74 Unspecified NONE
5402011-11-08 17:00PSTYesxxxUSGS1070003.96 Unspecified NONE
5392011-11-08 16:18PSTYesxxxUSGS896004.44 Unspecified NONE
5382011-11-08 15:56PSTYesxxxUSGS608004.69 Unspecified NONE
5372011-11-08 15:21PSTYesxxxUSGS167005.09 Unspecified NONE
5362011-11-08 14:57PSTYesxxxUSGS-179005.34 Unspecified NONE
5352011-11-08 14:38PSTYesxxxUSGS-362005.48 Unspecified NONE
5342011-11-08 14:18PSTYesxxxUSGS-547005.57 Unspecified NONE
5332011-11-08 13:57PSTYesxxxUSGS-668005.59 Unspecified NONE
5322011-11-08 13:40PSTYesxxxUSGS-767005.57 Unspecified NONE
5312011-11-08 12:49PSTYesxxxUSGS-925005.36 Unspecified NONE
5302011-11-08 12:26PSTYesxxxUSGS-979005.24 Unspecified NONE
5292011-11-08 12:04PSTYesxxxUSGS-991005.08 Unspecified NONE
5282011-11-08 11:35PSTYesxxxUSGS-1010004.85 Unspecified NONE
5272011-11-08 11:12PSTYesxxxUSGS-988004.62 Unspecified NONE
5262011-11-08 10:47PSTYesxxxUSGS-885004.36 Unspecified NONE
5252011-11-08 10:26PSTYesxxxUSGS-787004.12 Unspecified NONE
5242011-11-08 10:03PSTYesxxxUSGS-541003.87 Unspecified NONE
5232011-11-08 09:34PSTYesxxxUSGS-240003.58 Unspecified NONE
5222011-11-08 09:06PSTYesxxxUSGS146003.25 Unspecified NONE
5212011-11-08 08:32PSTYesxxxUSGS440002.93 Unspecified NONE
5202011-11-08 08:05PSTYesxxxUSGS626002.81 Unspecified NONE
5192010-03-09 16:29PSTYesxxxUSGS959002.97 Unspecified NONE
5182010-03-09 16:16PSTYesxxxUSGS981003.08 Unspecified NONE
5172010-03-09 16:03PSTYesxxxUSGS1010003.17 Unspecified NONE
5162010-03-09 15:48PSTYesxxxUSGS1030003.29 Unspecified NONE
5152010-03-09 15:33PSTYesxxxUSGS1030003.49 Unspecified NONE
5142010-03-09 14:30PSTYesxxxUSGS1060004.06 Unspecified NONE
5132010-03-09 14:14PSTYesxxxUSGS1050004.22 Unspecified NONE
5122010-03-09 13:59PSTYesxxxUSGS1040004.41 Unspecified NONE
5112010-03-09 13:28PSTYesxxxUSGS950004.65 Unspecified NONE
5102010-03-09 13:13PSTYesxxxUSGS911004.77 Unspecified NONE
5092010-03-09 12:57PSTYesxxxUSGS796004.92 Unspecified NONE
5082010-03-09 12:41PSTYesxxxUSGS696005.06 Unspecified NONE
5072010-03-09 12:26PSTYesxxxUSGS532005.20 Unspecified NONE
5062010-03-09 12:10PSTYesxxxUSGS406005.31 Unspecified NONE
5052010-03-09 11:55PSTYesxxxUSGS232005.44 Unspecified NONE
5042010-03-09 11:38PSTYesxxxUSGS96705.56 Unspecified NONE
5032010-03-09 11:23PSTYesxxxUSGS-48505.62 Unspecified NONE
5022010-03-09 11:08PSTYesxxxUSGS-147005.64 Unspecified NONE
5012010-03-09 10:46PSTYesxxxUSGS-285005.65 Unspecified NONE
5002010-03-09 10:31PSTYesxxxUSGS-344005.65 Unspecified NONE
4992010-03-09 10:18PSTYesxxxUSGS-411005.64 Unspecified NONE
4982010-03-09 09:58PSTYesxxxUSGS-485005.60 Unspecified NONE
4972010-03-09 09:36PSTYesxxxUSGS-552005.53 Unspecified NONE
4962009-10-06 18:07PSTYesxxxUSGS247005.68 Unspecified NONE
4952009-10-06 17:56PSTYesxxxUSGS72105.80 Unspecified NONE
4942009-10-06 17:43PSTYesxxxUSGS-98605.94 Unspecified NONE
4932009-10-06 17:28PSTYesxxxUSGS-314006.07 Unspecified NONE
4922009-10-06 17:13PSTYesxxxUSGS-449006.15 Unspecified NONE
4912009-10-06 16:59PSTYesxxxUSGS-594006.21 Unspecified NONE
4902009-10-06 16:44PSTYesxxxUSGS-682006.23 Unspecified NONE
4892009-10-06 16:29PSTYesxxxUSGS-790006.23 Unspecified NONE
4882009-10-06 16:13PSTYesxxxUSGS-864006.20 Unspecified NONE
4872009-10-06 15:51PSTYesxxxUSGS-953006.13 Unspecified NONE
4862009-10-06 14:56PSTYesxxxUSGS-1090005.81 Unspecified NONE
4852009-10-06 14:32PSTYesxxxUSGS-1110005.63 Unspecified NONE
4842009-10-06 14:18PSTYesxxxUSGS-1110005.51 Unspecified NONE
4832009-10-06 14:04PSTYesxxxUSGS-1100005.37 Unspecified NONE
4822009-10-06 13:49PSTYesxxxUSGS-1080005.21 Unspecified NONE
4812009-10-06 13:33PSTYesxxxUSGS-1010005.03 Unspecified NONE
4802009-10-06 13:18PSTYesxxxUSGS-966004.84 Unspecified NONE
4792009-10-06 13:03PSTYesxxxUSGS-852004.65 Unspecified NONE
4782009-10-06 12:46PSTYesxxxUSGS-732004.46 Unspecified NONE
4772009-10-06 12:28PSTYesxxxUSGS-496004.26 Unspecified NONE
4762009-10-06 11:56PSTYesxxxUSGS-141003.88 Unspecified NONE
4752009-10-06 11:23PSTYesxxxUSGS318003.50 Unspecified NONE
4742009-10-06 11:04PSTYesxxxUSGS475003.35 Unspecified NONE
4732009-10-06 10:46PSTYesxxxUSGS622003.27 Unspecified NONE
4722009-10-06 10:10PSTYesxxxUSGS784003.29 Unspecified NONE
4712009-10-06 09:53PSTYesxxxUSGS848003.36 Unspecified NONE
4702009-10-06 09:37PSTYesxxxUSGS895003.43 Unspecified NONE
4692009-10-06 09:21PSTYesxxxUSGS929003.53 Unspecified NONE
4682009-10-06 09:07PSTYesxxxUSGS950003.64 Unspecified NONE
4672009-10-06 08:52PSTYesxxxUSGS955003.76 Unspecified NONE
4662009-10-06 08:37PSTYesxxxUSGS962003.89 Unspecified NONE
4652009-10-06 08:22PSTYesxxxUSGS934004.03 Unspecified NONE
4642009-10-06 07:56PSTYesxxxUSGS859004.25 Unspecified NONE
4632009-10-06 07:41PSTYesxxxUSGS730004.39 Unspecified NONE
4622009-10-06 07:22PSTYesxxxUSGS591004.56 Unspecified NONE
4612009-10-06 06:58PSTYesxxxUSGS260004.79 Unspecified NONE
4602009-01-14 15:26PSTYesxxx/xxxUSGS-99300 UnspecifiedUnspecifedNONE
4592009-01-14 15:09PSTYesxxx/xxxUSGS-91200 UnspecifiedUnspecifedNONE
4582009-01-14 14:50PSTYesxxx/xxxUSGS-84800 UnspecifiedUnspecifedNONE
4572009-01-14 14:36PSTYesxxx/xxxUSGS-69100 UnspecifiedUnspecifedNONE
4562009-01-14 14:23PSTYesxxx/xxxUSGS-57600 UnspecifiedUnspecifedNONE
4552009-01-14 14:11PSTYesxxx/xxxUSGS-38700 UnspecifiedUnspecifedNONE
4542008-06-19 17:09PSTYesBJS/CARUSGS-739004.84 Unspecified NONE
4532008-06-19 16:48PSTYesBJS/CARUSGS-814004.76 Unspecified NONE
4522008-06-19 16:27PSTYesBJS/CARUSGS-850004.66 Unspecified NONE
4512008-06-19 16:07PSTYesBJS/CARUSGS-887004.56 Unspecified NONE
4502008-06-19 15:37PSTYesBJS/CARUSGS-920004.38 Unspecified NONE
4492008-06-19 15:17PSTYesBJS/CARUSGS-938004.23 Unspecified NONE
4482008-06-19 14:55PSTYesBJS/CARUSGS-911004.02 Unspecified NONE
4472008-06-19 14:32PSTYesBJS/CARUSGS-866003.76 Unspecified NONE
4462008-06-19 14:10PSTYesBJS/CARUSGS-711003.49 Unspecified NONE
4452008-06-19 13:47PSTYesBJS/CARUSGS-566003.23 Unspecified NONE
4442008-06-19 13:27PSTYesBJS/CARUSGS-272003.01 Unspecified NONE
4432008-06-19 13:05PSTYesBJS/CARUSGS-10402.70 Unspecified NONE
4422008-06-19 12:41PSTYesBJS/CARUSGS333002.35 Unspecified NONE
4412008-06-19 12:17PSTYesBJS/CARUSGS532002.13 Unspecified NONE
4402008-06-19 11:53PSTYesBJS/CARUSGS702002.07 Unspecified NONE
4392008-06-19 11:28PSTYesBJS/CARUSGS774002.12 Unspecified NONE
4382008-06-19 11:04PSTYesBJS/CARUSGS857002.24 Unspecified NONE
4372008-06-19 10:40PSTYesBJS/CARUSGS892002.40 Unspecified NONE
4362008-06-19 10:16PSTYesBJS/CARUSGS925002.59 Unspecified NONE
4352008-06-19 09:51PSTYesBJS/CARUSGS963002.81 Unspecified NONE
4342008-06-19 09:23PSTYesBJS/CARUSGS983003.06 Unspecified NONE
4332008-06-19 09:05PSTYesBJS/CARUSGS1030003.23 Unspecified NONE
4322008-06-19 08:46PSTYesBJS/CARUSGS1030003.41 Unspecified NONE
4312008-06-19 08:28PSTYesBJS/CARUSGS1060003.59 Unspecified NONE
4302008-06-19 08:00PSTYesBJS/CARUSGS1090003.87 Unspecified NONE
4292008-06-19 07:41PSTYesBJS/CARUSGS1100004.04 Unspecified NONE
4282008-06-19 07:23PSTYesBJS/CARUSGS1130004.21 Unspecified NONE
4272008-06-19 07:03PSTYesBJS/CARUSGS1140004.41 Unspecified NONE
4262008-06-19 06:39PSTYesBJS/CARUSGS1140004.65 Unspecified NONE
4252008-03-25 08:07PSTYesJBD/CRBUSGS1050004.40 Unspecified NONE
4242008-03-25 07:51PSTYesJBD/CRBUSGS941004.56 Unspecified NONE
4232007-08-29 17:25PSTYesBJS/CARUSGS-573005.61 Unspecified NONE
4222007-08-29 16:59PSTYesBJS/CARUSGS-700005.62 Unspecified NONE
4212007-08-29 16:32PSTYesBJS/CARUSGS-834005.57 Unspecified NONE
4202007-08-29 16:02PSTYesBJS/CARUSGS-913005.45 Unspecified NONE
4192007-08-29 15:38PSTYesBJS/CARUSGS-997005.32 Unspecified NONE
4182007-08-29 15:13PSTYesBJS/CARUSGS-1020005.17 Unspecified NONE
4172007-08-29 14:47PSTYesBJS/CARUSGS-1050005.00 Unspecified NONE
4162007-08-29 14:22PSTYesBJS/CARUSGS-1040004.78 Unspecified NONE
4152007-08-29 13:49PSTYesBJS/CARUSGS-923004.40 Unspecified NONE
4142007-08-29 13:21PSTYesBJS/CARUSGS-795004.03 Unspecified NONE
4132007-08-29 12:53PSTYesBJS/CARUSGS-374003.69 Unspecified NONE
4122007-08-29 12:25PSTYesBJS/CARUSGS-32103.25 Unspecified NONE
4112007-08-29 12:03PSTYesBJS/CARUSGS360002.84 Unspecified NONE
4102007-08-29 11:39PSTYesBJS/CARUSGS606002.56 Unspecified NONE
4092007-08-29 11:10PSTYesBJS/CARUSGS795002.45 Unspecified NONE
4082007-08-29 10:45PSTYesBJS/CARUSGS886002.52 Unspecified NONE
4072007-08-29 10:22PSTYesBJS/CARUSGS926002.67 Unspecified NONE
4062007-08-29 10:00PSTYesBJS/CARUSGS980002.83 Unspecified NONE
4052007-08-29 09:40PSTYesBJS/CARUSGS995003.00 Unspecified NONE
4042007-08-29 09:17PSTYesBJS/CARUSGS1030003.19 Unspecified NONE
4032007-08-29 08:55PSTYesBJS/CARUSGS1060003.40 Unspecified NONE
4022007-08-29 08:29PSTYesBJS/CARUSGS1090003.61 Unspecified NONE
4012007-08-29 07:49PSTYesBJS/CARUSGS1130004.01 Unspecified NONE
4002007-08-29 07:26PSTYesBJS/CARUSGS1160004.24 Unspecified NONE
3992007-06-21 12:46PSTYes???USGS932002.90 Unspecified NONE
3982007-06-21 12:31PSTYes???USGS964003.02 Unspecified NONE
3972007-06-21 12:14PSTYes???USGS970003.17 Unspecified NONE
3962007-06-21 11:58PSTYes???USGS997003.31 Unspecified NONE
3952007-06-21 11:27PSTYes???USGS989003.59 Unspecified NONE
3942007-06-21 11:10PSTYes???USGS993003.74 Unspecified NONE
3932007-06-21 10:43PSTYes???USGS939004.01 Unspecified NONE
3922007-06-21 10:28PSTYes???USGS881004.16 Unspecified NONE
3912007-06-21 09:53PSTYes???USGS648004.50 Unspecified NONE
3902007-06-21 09:38PSTYes???USGS498004.61 Unspecified NONE
3892007-06-21 09:23PSTYes???USGS324004.65 Unspecified NONE
3882007-06-21 09:07PSTYes???USGS125004.78 Unspecified NONE
3872007-06-21 08:02PSTYes???USGS-463005.11 Unspecified NONE
3862007-06-21 07:37PSTYes???USGS-579005.14 Unspecified NONE
3852007-06-14 14:10PSTYes???USGS-1030004.48 Unspecified NONE
3842007-06-14 13:59PSTYes???USGS-948004.39 Unspecified NONE
3832007-06-14 13:48PSTYes???USGS-1030004.29 Unspecified NONE
3822007-06-14 13:37PSTYes???USGS-925004.16 Unspecified NONE
3812007-06-14 13:26PSTYes???USGS-961004.02 Unspecified NONE
3802007-06-14 13:13PSTYes???USGS-842003.86 Unspecified NONE
3792007-06-14 13:01PSTYes???USGS-822003.70 Unspecified NONE
3782007-06-14 12:49PSTYes???USGS-653003.55 Unspecified NONE
3772007-06-14 12:36PSTYes???USGS-535003.39 Unspecified NONE
3762007-06-14 12:22PSTYes???USGS-310003.23 Unspecified NONE
3752007-06-14 12:09PSTYes???USGS-125003.06 Unspecified NONE
3742007-06-14 11:57PSTYes???USGS96002.84 Unspecified NONE
3732007-06-14 11:44PSTYes???USGS304002.58 Unspecified NONE
3722007-06-14 11:30PSTYes???USGS470002.37 Unspecified NONE
3712007-06-14 11:18PSTYes???USGS616002.24 Unspecified NONE
3702007-06-14 11:06PSTYes???USGS681002.15 Unspecified NONE
3692007-06-14 10:54PSTYes???USGS780002.10 Unspecified NONE
3682007-06-14 10:42PSTYes???USGS820002.09 Unspecified NONE
3672007-06-14 10:29PSTYes???USGS889002.11 Unspecified NONE
3662007-06-14 10:16PSTYes???USGS923002.16 Unspecified NONE
3652007-06-14 10:03PSTYes???USGS972002.24 Unspecified NONE
3642007-06-14 09:50PSTYes???USGS980002.32 Unspecified NONE
3632007-06-14 09:36PSTYes???USGS1030002.42 Unspecified NONE
3622007-06-14 09:22PSTYes???USGS1020002.54 Unspecified NONE
3612007-06-14 09:09PSTYes???USGS1070002.67 Unspecified NONE
3602007-06-14 08:54PSTYes???USGS1050002.81 Unspecified NONE
3592007-06-14 08:41PSTYes???USGS1100002.95 Unspecified NONE
3582007-06-14 08:28PSTYes???USGS1090003.08 Unspecified NONE
3572007-06-14 08:16PSTYes???USGS1130003.19 Unspecified NONE
3562007-06-14 08:04PSTYes???USGS1120003.34 Unspecified NONE
3552006-10-03 15:05PSTYes???USGS118005.11 Unspecified NONE
3542006-10-03 14:52PSTYes???USGS-27005.22 Unspecified NONE
3532006-10-03 14:37PSTYes???USGS-190005.32 Unspecified NONE
3522006-10-03 14:23PSTYes???USGS-313005.37 Unspecified NONE
3512006-10-03 14:10PSTYes???USGS-417005.40 Unspecified NONE
3502006-10-03 13:58PSTYes???USGS-493005.42 Unspecified NONE
3492006-10-03 13:47PSTYes???USGS-560005.42 Unspecified NONE
3482006-10-03 13:35PSTYes???USGS-622005.41 Unspecified NONE
3472006-10-03 13:21PSTYes???USGS-699005.39 Unspecified NONE
3462006-10-03 13:09PSTYes???USGS-735005.35 Unspecified NONE
3452006-10-03 12:56PSTYes???USGS-793005.30 Unspecified NONE
3442006-10-03 12:42PSTYes???USGS-822005.23 Unspecified NONE
3432006-10-03 12:26PSTYes???USGS-863005.15 Unspecified NONE
3422006-10-03 12:07PSTYes???USGS-889005.04 Unspecified NONE
3412006-10-03 11:28PSTYes???USGS-954004.80 Unspecified NONE
3402006-10-03 11:14PSTYes???USGS-950004.70 Unspecified NONE
3392006-10-03 11:03PSTYes???USGS-974004.60 Unspecified NONE
3382006-10-03 10:51PSTYes???USGS-940004.51 Unspecified NONE
3372006-10-03 10:39PSTYes???USGS-958004.39 Unspecified NONE
3362006-10-03 10:27PSTYes???USGS-906004.25 Unspecified NONE
3352006-10-03 10:14PSTYes???USGS-888004.10 Unspecified NONE
3342006-10-03 09:58PSTYes???USGS-781003.91 Unspecified NONE
3332006-10-03 09:46PSTYes???USGS-745003.77 Unspecified NONE
3322006-10-03 09:35PSTYes???USGS-606003.63 Unspecified NONE
3312006-10-03 09:02PSTYes???USGS-232003.26 Unspecified NONE
3302006-10-03 08:51PSTYes???USGS-46203.10 Unspecified NONE
3292006-10-03 08:38PSTYes???USGS121002.87 Unspecified NONE
3282006-10-03 08:19PSTYes???USGS372002.60 Unspecified NONE
3272006-10-03 08:06PSTYes???USGS468002.46 Unspecified NONE
3262006-10-03 07:45PSTYes???USGS647002.32 Unspecified NONE
3252006-07-14 14:41PSTYes???USGS-34603.00 Unspecified NONE
3242006-07-14 14:27PSTYes???USGS219002.72 Unspecified NONE
3232006-07-14 14:13PSTYes???USGS421002.46 Unspecified NONE
3222006-07-14 13:59PSTYes???USGS563002.28 Unspecified NONE
3212006-07-14 12:54PSTYes???USGS960002.17 Unspecified NONE
3202006-07-14 12:39PSTYes???USGS963002.25 Unspecified NONE
3192006-07-14 12:25PSTYes???USGS1020002.35 Unspecified NONE
3182006-07-14 12:11PSTYes???USGS1010002.46 Unspecified NONE
3172006-07-14 11:37PSTYes???USGS1090002.78 Unspecified NONE
3162006-07-14 11:23PSTYes???USGS1070002.91 Unspecified NONE
3152006-07-14 11:09PSTYes???USGS1110003.05 Unspecified NONE
3142006-07-14 10:53PSTYes???USGS1090003.20 Unspecified NONE
3132006-07-14 10:10PSTYes???USGS1180003.64 Unspecified NONE
3122006-07-14 09:53PSTYes???USGS1160003.79 Unspecified NONE
3112006-07-14 09:36PSTYes???USGS1210003.94 Unspecified NONE
3102006-07-14 09:17PSTYes???USGS1210004.14 Unspecified NONE
3092006-01-03 09:10PSTYes???USGS3330008.07 Unspecified NONE
3082006-01-03 08:56PSTYes???USGS3240008.07 Unspecified NONE
3072006-01-03 08:43PSTYes???USGS3290008.10 Unspecified NONE
3062006-01-03 08:30PSTYes???USGS3120008.07 Unspecified NONE
3052006-01-03 08:16PSTYes???USGS3260008.15 Unspecified NONE
3042006-01-03 08:03PSTYes???USGS3210008.21 Unspecified NONE
3032005-12-29 08:28PSTYes???USGS1110004.81 Unspecified NONE
3022005-12-29 08:15PSTYes???USGS1210004.76 Unspecified NONE
3012005-12-29 08:03PSTYes???USGS1200004.73 Unspecified NONE
3002005-12-29 07:51PSTYes???USGS1310004.71 Unspecified NONE
2992005-05-23 06:48PSTYes???USGS16100012.56 Unspecified NONE
2982005-05-23 06:35PSTYes???USGS16200012.69 Unspecified NONE
2972005-05-23 06:20PSTYes???USGS16300012.84 Unspecified NONE
2962005-05-23 06:05PSTYes???USGS16500013.02 Unspecified NONE
2952004-03-10 10:06PSTYes???USGS14900011.88 Unspecified NONE
2942004-03-10 09:51PSTYes???USGS15100012.03 Unspecified NONE
2932004-03-10 09:08PSTYes???USGS15400012.43 Unspecified NONE
2922004-03-10 08:53PSTYes???USGS15500012.56 Unspecified NONE
2912004-03-10 08:38PSTYes???USGS15400012.70 Unspecified NONE
2902004-03-10 08:22PSTYes???USGS15300012.87 Unspecified NONE
2892004-03-10 07:47PSTYes???USGS13700013.29 Unspecified NONE
2882004-03-10 07:31PSTYes???USGS12300013.49 Unspecified NONE
2872004-03-10 07:15PSTYes???USGS10100013.66 Unspecified NONE
2862004-03-10 07:00PSTYes???USGS8540013.81 Unspecified NONE
2852004-03-10 06:45PSTYes???USGS6120013.96 Unspecified NONE
2842004-03-10 06:31PSTYes???USGS4060014.10 Unspecified NONE
2832004-03-10 06:18PSTYes???USGS2530014.19 Unspecified NONE
2822004-02-28 15:47PSTYes???USGS17100012.02 Unspecified NONE
2812004-02-28 15:30PSTYes???USGS17600012.12 Unspecified NONE
2802004-02-28 15:13PSTYes???USGS17100012.20 Unspecified NONE
2792004-02-28 14:56PSTYes???USGS17500012.32 Unspecified NONE
2782003-02-18 14:56PSTYes???USGS-8130013.66 Unspecified NONE
2772003-02-18 14:46PSTYes???USGS-8170013.55 Unspecified NONE
2762003-02-18 14:35PSTYes???USGS-8320013.47 Unspecified NONE
2752003-02-18 14:24PSTYes???USGS-8210013.29 Unspecified NONE
2742003-02-18 14:14PSTYes???USGS-8210013.16 Unspecified NONE
2732003-02-18 14:03PSTYes???USGS-7800013.04 Unspecified NONE
2722003-02-18 13:52PSTYes???USGS-7670012.92 Unspecified NONE
2712003-02-18 13:43PSTYes???USGS-6840012.73 Unspecified NONE
2702003-02-18 13:29PSTYes???USGS-6250012.52 Unspecified NONE
2692003-02-18 13:18PSTYes???USGS-4570012.38 Unspecified NONE
2682003-02-18 13:06PSTYes???USGS-3390012.24 Unspecified NONE
2672003-02-18 12:24PSTYes???USGS2900011.57 Unspecified NONE
2662003-02-18 12:12PSTYes???USGS4230011.38 Unspecified NONE
2652003-02-18 12:01PSTYes???USGS5580011.22 Unspecified NONE
2642003-02-18 11:32PSTYes???USGS7930010.96 Unspecified NONE
2632003-02-18 11:21PSTYes???USGS8670010.90 Unspecified NONE
2622003-02-18 11:10PSTYes???USGS9130010.89 Unspecified NONE
2612003-02-18 10:58PSTYes???USGS9700010.89 Unspecified NONE
2602003-02-18 10:49PSTYes???USGS10000010.90 Unspecified NONE
2592003-02-18 10:39PSTYes???USGS10500010.93 Unspecified NONE
2582003-02-18 10:27PSTYes???USGS10600010.98 Unspecified NONE
2572003-02-18 10:18PSTYes???USGS11000011.05 Unspecified NONE
2562003-02-18 10:08PSTYes???USGS11100011.08 Unspecified NONE
2552003-02-18 09:56PSTYes???USGS11400011.14 Unspecified NONE
2542003-02-18 09:46PSTYes???USGS11500011.23 Unspecified NONE
2532003-02-18 09:36PSTYes???USGS11900011.29 Unspecified NONE
2522003-02-18 09:26PSTYes???USGS11900011.36 Unspecified NONE
2512003-02-18 09:14PSTYes???USGS12100011.45 Unspecified NONE
2502002-10-30 09:30PSTYes???USGS-9060012.04 Unspecified NONE
2492002-10-30 09:12PSTYes???USGS-9010011.90 Unspecified NONE
2482002-10-30 08:54PSTYes???USGS-9070011.73 Unspecified NONE
2472002-10-30 08:32PSTYes???USGS-8390011.49 Unspecified NONE
2462002-10-30 08:14PSTYes???USGS-8030011.27 Unspecified NONE
2452002-10-30 07:55PSTYes???USGS-6600011.02 Unspecified NONE
2442001-03-13 15:27PSTYes???USGS-1500011.33 Unspecified NONE
2432001-03-13 15:15PSTYes???USGS313011.14 Unspecified NONE
2422001-03-13 15:01PSTYes???USGS1790010.91 Unspecified NONE
2412001-03-13 14:49PSTYes???USGS3540010.73 Unspecified NONE
2402001-03-13 14:37PSTYes???USGS4640010.55 Unspecified NONE
2392001-03-13 14:24PSTYes???USGS5960010.41 Unspecified NONE
2382001-03-13 14:12PSTYes???USGS6790010.30 Unspecified NONE
2372001-03-13 13:59PSTYes???USGS7600010.24 Unspecified NONE
2362001-03-13 13:31PSTYes???USGS8850010.22 Unspecified NONE
2352001-03-13 13:17PSTYes???USGS9380010.26 Unspecified NONE
2342001-03-13 13:00PSTYes???USGS9870010.32 Unspecified NONE
2332001-03-13 12:45PSTYes???USGS10200010.41 Unspecified NONE
2322001-03-13 12:25PSTYes???USGS10500010.54 Unspecified NONE
2312001-03-13 12:09PSTYes???USGS10800010.66 Unspecified NONE
2302001-03-13 11:47PSTYes???USGS11200010.84 Unspecified NONE
2292001-03-13 11:32PSTYes???USGS11500010.98 Unspecified NONE
2282001-03-13 11:17PSTYes???USGS11500011.10 Unspecified NONE
2272001-03-13 11:02PSTYes???USGS11700011.24 Unspecified NONE
2262001-03-13 10:47PSTYes???USGS11900011.37 Unspecified NONE
2252001-03-13 10:32PSTYes???USGS12200011.51 Unspecified NONE
2242001-03-13 10:05PSTYes???USGS12000011.73 Unspecified NONE
2232001-03-13 09:42PSTYes???USGS12600011.99 Unspecified NONE
2222001-03-13 09:27PSTYes???USGS12600012.16 Unspecified NONE
2212001-03-13 09:12PSTYes???USGS12500012.33 Unspecified NONE
2202001-03-13 08:58PSTYes???USGS11700012.49 Unspecified NONE
2192001-03-13 08:42PSTYes???USGS10900012.66 Unspecified NONE
2182001-03-13 08:28PSTYes???USGS9520012.82 Unspecified NONE
2172001-03-13 08:15PSTYes???USGS8190012.96 Unspecified NONE
2162001-03-13 08:03PSTYes???USGS6400013.13 Unspecified NONE
2152001-03-13 07:51PSTYes???USGS4580013.29 Unspecified NONE
2142001-03-13 07:38PSTYes???USGS2600013.45 Unspecified NONE
2132001-03-13 07:26PSTYes???USGS900013.59 Unspecified NONE
2122001-03-13 07:14PSTYes???USGS-670013.72 Unspecified NONE
2112000-10-18 17:04PSTYes???USGS-10200013.35 Unspecified NONE
2102000-10-18 16:53PSTYes???USGS-10400013.27 Unspecified NONE
2092000-10-18 16:41PSTYes???USGS-10200013.15 Unspecified NONE
2082000-10-18 16:28PSTYes???USGS-9980013.03 Unspecified NONE
2072000-10-18 16:15PSTYes???USGS-9420012.90 Unspecified NONE
2062000-10-18 16:04PSTYes???USGS-9120012.81 Unspecified NONE
2052000-10-18 15:51PSTYes???USGS-8550012.60 Unspecified NONE
2042000-10-18 15:37PSTYes???USGS-7840012.53 Unspecified NONE
2032000-10-18 15:22PSTYes???USGS-6770012.26 Unspecified NONE
2022000-10-18 15:09PSTYes???USGS-5790012.18 Unspecified NONE
2012000-10-18 14:56PSTYes???USGS-4410012.03 Unspecified NONE
2002000-10-18 14:43PSTYes???USGS-3090011.93 Unspecified NONE
1992000-10-18 14:30PSTYes???USGS-1540011.81 Unspecified NONE
1982000-10-18 14:14PSTYes???USGS88411.67 Unspecified NONE
1972000-10-18 13:56PSTYes???USGS2150011.48 Unspecified NONE
1962000-10-18 13:43PSTYes???USGS3180011.36 Unspecified NONE
1952000-10-18 13:24PSTYes???USGS4790011.22 Unspecified NONE
1942000-10-18 13:12PSTYes???USGS5560011.16 Unspecified NONE
1932000-10-18 12:51PSTYes???USGS6510011.12 Unspecified NONE
1922000-10-18 12:37PSTYes???USGS7000011.13 Unspecified NONE
1912000-10-18 12:24PSTYes???USGS7400011.16 Unspecified NONE
1902000-10-18 12:10PSTYes???USGS7730011.22 Unspecified NONE
1892000-04-06 13:15PSTYes???USGS267010.70 Unspecified NONE
1882000-04-06 13:08PSTYes???USGS1350010.56 Unspecified NONE
1872000-04-06 13:01PSTYes???USGS2270010.44 Unspecified NONE
1862000-04-06 12:54PSTYes???USGS3500010.31 Unspecified NONE
1852000-04-06 12:47PSTYes???USGS4060010.19 Unspecified NONE
1842000-04-06 12:40PSTYes???USGS4980010.07 Unspecified NONE
1832000-04-06 12:33PSTYes???USGS564009.99 Unspecified NONE
1822000-04-06 12:26PSTYes???USGS644009.92 Unspecified NONE
1812000-04-06 12:18PSTYes???USGS691009.86 Unspecified NONE
1802000-04-06 12:12PSTYes???USGS751009.83 Unspecified NONE
1792000-04-06 12:05PSTYes???USGS770009.81 Unspecified NONE
1782000-04-06 11:58PSTYes???USGS816009.81 Unspecified NONE
1772000-04-06 11:51PSTYes???USGS835009.81 Unspecified NONE
1762000-04-06 11:44PSTYes???USGS854009.83 Unspecified NONE
1752000-04-06 11:27PSTYes???USGS905009.88 Unspecified NONE
1742000-04-06 11:20PSTYes???USGS912009.92 Unspecified NONE
1732000-04-06 11:13PSTYes???USGS934009.96 Unspecified NONE
1722000-04-06 11:06PSTYes???USGS9600010.00 Unspecified NONE
1712000-04-06 10:58PSTYes???USGS9910010.05 Unspecified NONE
1702000-04-06 10:51PSTYes???USGS10000010.10 Unspecified NONE
1692000-04-06 10:32PSTYes???USGS10300010.25 Unspecified NONE
1682000-04-06 10:24PSTYes???USGS10300010.32 Unspecified NONE
1672000-04-06 10:06PSTYes???USGS10500010.49 Unspecified NONE
1662000-04-06 09:59PSTYes???USGS10600010.56 Unspecified NONE
1652000-04-06 09:39PSTYes???USGS10800010.75 Unspecified NONE
1642000-04-06 09:33PSTYes???USGS10700010.81 Unspecified NONE
1632000-04-06 09:17PSTYes???USGS10400010.98 Unspecified NONE
1622000-04-06 09:10PSTYes???USGS11000011.02 Unspecified NONE
1612000-04-06 08:44PSTYes???USGS11300011.32 Unspecified NONE
1602000-04-06 08:37PSTYes???USGS11500011.40 Unspecified NONE
1592000-04-06 08:30PSTYes???USGS11500011.47 Unspecified NONE
1582000-04-06 08:23PSTYes???USGS11300011.54 Unspecified NONE
1571999-08-17 11:42PSTYes???USGS7970010.73 Unspecified NONE
1561999-08-17 11:33PSTYes???USGS8040010.80 Unspecified NONE
1551999-08-17 11:12PSTYes???USGS8050010.98 Unspecified NONE
1541999-08-17 11:03PSTYes???USGS8440011.07 Unspecified NONE
1531999-08-17 10:45PSTYes???USGS8270011.25 Unspecified NONE
1521999-08-17 10:37PSTYes???USGS8190011.33 Unspecified NONE
1511999-08-17 10:28PSTYes???USGS8150011.42 Unspecified NONE
1501999-08-17 10:20PSTYes???USGS7830011.50 Unspecified NONE
1491999-08-17 10:10PSTYes???USGS7540011.61 Unspecified NONE
1481999-08-17 10:01PSTYes???USGS7060011.70 Unspecified NONE
1471999-08-17 09:52PSTYes???USGS6590011.79 Unspecified NONE
1461999-08-17 09:43PSTYes???USGS5840011.88 Unspecified NONE
1451999-08-17 09:28PSTYes???USGS4540012.04 Unspecified NONE
1441999-08-17 09:18PSTYes???USGS3480012.13 Unspecified NONE
1431997-08-21 09:51PSTYes???USGS9430011.20 Unspecified NONE
1421997-08-21 09:41PSTYes???USGS9350011.29 Unspecified NONE
1411997-08-21 09:32PSTYes???USGS9590011.37 Unspecified NONE
1401997-08-21 09:23PSTYes???USGS9590011.47 Unspecified NONE
1391997-08-21 09:14PSTYes???USGS9770011.58 Unspecified NONE
1381997-08-20 13:49PSTYes???USGS-7210011.61 Unspecified NONE
1371997-08-20 13:40PSTYes???USGS-5870011.44 Unspecified NONE
1361997-08-20 13:31PSTYes???USGS-5490011.28 Unspecified NONE
1351997-08-20 13:23PSTYes???USGS-3900011.12 Unspecified NONE
1341997-08-20 13:14PSTYes???USGS-2740010.95 Unspecified NONE
1331997-08-20 12:57PSTYes???USGS42610.58 Unspecified NONE
1321997-08-20 12:48PSTYes???USGS1250010.41 Unspecified NONE
1311997-08-20 12:38PSTYes???USGS2480010.25 Unspecified NONE
1301997-08-20 12:29PSTYes???USGS3470010.13 Unspecified NONE
1291997-08-20 12:19PSTYes???USGS4450010.03 Unspecified NONE
1281997-08-20 12:10PSTYes???USGS508009.98 Unspecified NONE
1271997-08-20 12:01PSTYes???USGS558009.95 Unspecified NONE
1261997-08-20 11:51PSTYes???USGS592009.96 Unspecified NONE
1251997-08-14 12:56PSTYes???USGS-4680013.29 Unspecified NONE
1241997-08-14 12:47PSTYes???USGS-4800013.26 Unspecified NONE
1231997-08-14 12:22PSTYes???USGS-5400013.19 Unspecified NONE
1221997-08-14 12:12PSTYes???USGS-5800013.14 Unspecified NONE
1211997-08-14 12:03PSTYes???USGS-6240013.10 Unspecified NONE
1201997-08-14 11:53PSTYes???USGS-6180013.05 Unspecified NONE
1191997-08-14 11:43PSTYes???USGS-6530013.01 Unspecified NONE
1181997-08-14 11:32PSTYes???USGS-6490012.94 Unspecified NONE
1171997-08-13 15:45PSTYes???USGS6290011.81 Unspecified NONE
1161997-08-13 15:37PSTYes???USGS6140011.86 Unspecified NONE
1151997-08-13 15:29PSTYes???USGS7580011.92 Unspecified NONE
1141997-08-13 15:20PSTYes???USGS7210011.97 Unspecified NONE
1131997-08-13 15:12PSTYes???USGS7570012.03 Unspecified NONE
1121997-08-13 15:03PSTYes???USGS6940012.08 Unspecified NONE
1111997-08-13 14:55PSTYes???USGS7030012.14 Unspecified NONE
1101997-08-13 14:48PSTYes???USGS7080012.19 Unspecified NONE
1091997-08-13 14:40PSTYes???USGS6140012.24 Unspecified NONE
1081997-08-13 14:33PSTYes???USGS6580012.31 Unspecified NONE
1071997-08-13 14:25PSTYes???USGS6230012.36 Unspecified NONE
1061997-08-13 14:17PSTYes???USGS5520012.43 Unspecified NONE
1051996-11-20 12:26PSTYes???USGS-3260013.67 Unspecified NONE
1041996-11-20 12:18PSTYes???USGS-3800013.68 Unspecified NONE
1031996-11-20 12:11PSTYes???USGS-4180013.67 Unspecified NONE
1021996-11-20 12:03PSTYes???USGS-4790013.67 Unspecified NONE
1011996-11-20 11:56PSTYes???USGS-5250013.65 Unspecified NONE
1001996-11-20 11:49PSTYes???USGS-5650013.63 Unspecified NONE
991996-11-20 11:36PSTYes???USGS-6320013.58 Unspecified NONE
981996-11-20 11:29PSTYes???USGS-6320013.54 Unspecified NONE
971996-11-20 11:21PSTYes???USGS-6640013.51 Unspecified NONE
961996-11-20 11:14PSTYes???USGS-6910013.47 Unspecified NONE
951996-11-20 11:06PSTYes???USGS-6860013.42 Unspecified NONE
941996-11-20 10:57PSTYes???USGS-7290013.36 Unspecified NONE
931996-11-19 11:33PSTYes???USGS-3760013.56 Unspecified NONE
921996-11-19 11:25PSTYes???USGS-4370013.54 Unspecified NONE
911996-11-19 11:18PSTYes???USGS-5180013.53 Unspecified NONE
901996-11-19 11:11PSTYes???USGS-5460013.51 Unspecified NONE
891996-07-12 13:27PSTYes???USGS-7860012.65 Unspecified NONE
881996-07-12 13:11PSTYes???USGS-7700012.56 Unspecified NONE
871996-07-12 13:01PSTYes???USGS-7730012.48 Unspecified NONE
861996-07-12 12:50PSTYes???USGS-7610012.44 Unspecified NONE
851996-07-12 12:39PSTYes???USGS-8120012.35 Unspecified NONE
841996-07-12 12:28PSTYes???USGS-7750012.25 Unspecified NONE
831996-07-12 12:17PSTYes???USGS-7980012.15 Unspecified NONE
821996-07-12 12:06PSTYes???USGS-7390012.04 Unspecified NONE
811996-07-12 11:55PSTYes???USGS-7800011.92 Unspecified NONE
801996-07-12 11:45PSTYes???USGS-7060011.79 Unspecified NONE
791996-07-12 11:35PSTYes???USGS-5930011.66 Unspecified NONE
781996-07-12 11:25PSTYes???USGS-5910011.55 Unspecified NONE
771996-07-12 11:14PSTYes???USGS-4630011.43 Unspecified NONE
761996-07-12 11:05PSTYes???USGS-3580011.31 Unspecified NONE
751996-07-12 10:55PSTYes???USGS-2620011.20 Unspecified NONE
741996-07-12 10:46PSTYes???USGS-1490011.07 Unspecified NONE
731996-07-12 10:37PSTYes???USGS-528010.95 Unspecified NONE
721996-07-12 10:27PSTYes???USGS126010.79 Unspecified NONE
711996-07-12 10:17PSTYes???USGS1400010.63 Unspecified NONE
701996-07-12 10:07PSTYes???USGS3060010.46 Unspecified NONE
691996-07-12 09:58PSTYes???USGS4150010.34 Unspecified NONE
681996-07-12 09:49PSTYes???USGS4730010.24 Unspecified NONE
671996-07-12 09:38PSTYes???USGS5420010.15 Unspecified NONE
661996-07-12 09:28PSTYes???USGS6270010.08 Unspecified NONE
651996-07-12 09:17PSTYes???USGS6580010.04 Unspecified NONE
641996-07-12 09:06PSTYes???USGS7070010.02 Unspecified NONE
631996-07-12 08:55PSTYes???USGS7630010.03 Unspecified NONE
621996-07-12 08:45PSTYes???USGS8250010.04 Unspecified NONE
611996-07-11 14:14PSTYes???USGS-4150012.91 Unspecified NONE
601996-07-11 14:04PSTYes???USGS-5080012.92 Unspecified NONE
591996-07-11 13:54PSTYes???USGS-5340012.92 Unspecified NONE
581996-07-11 13:44PSTYes???USGS-5810012.88 Unspecified NONE
571996-07-11 13:34PSTYes???USGS-6150012.88 Unspecified NONE
561996-07-11 13:25PSTYes???USGS-5680012.86 Unspecified NONE
551996-07-11 13:14PSTYes???USGS-6220012.83 Unspecified NONE
541996-07-11 13:02PSTYes???USGS-7160012.78 Unspecified NONE
531996-07-11 12:49PSTYes???USGS-7430012.73 Unspecified NONE
521996-07-11 12:36PSTYes???USGS-6880012.65 Unspecified NONE
511996-04-24 11:12PSTYes???USGS9340011.25 Unspecified NONE
501996-04-24 10:58PSTYes???USGS9400011.37 Unspecified NONE
491996-04-24 10:45PSTYes???USGS9440011.48 Unspecified NONE
481996-04-24 10:31PSTYes???USGS9230011.61 Unspecified NONE
471996-04-24 10:17PSTYes???USGS9080011.74 Unspecified NONE
461996-04-24 10:03PSTYes???USGS8510011.86 Unspecified NONE
451996-04-24 09:50PSTYes???USGS8070011.96 Unspecified NONE
441996-04-24 09:37PSTYes???USGS7590012.06 Unspecified NONE
431996-04-24 09:00PSTYes???USGS6870012.34 Unspecified NONE
421996-04-24 08:48PSTYes???USGS4770012.40 Unspecified NONE
411996-04-24 08:36PSTYes???USGS3540012.46 Unspecified NONE
401996-04-24 08:25PSTYes???USGS2900012.51 Unspecified NONE
391996-04-24 08:12PSTYes???USGS1790012.59 Unspecified NONE
381996-04-24 08:01PSTYes???USGS1050012.65 Unspecified NONE
371996-04-24 07:49PSTYes???USGS175012.68 Unspecified NONE
361996-04-24 07:38PSTYes???USGS-294012.71 Unspecified NONE
351996-04-24 07:26PSTYes???USGS-855012.75 Unspecified NONE
341995-05-03 12:47PSTYes???USGS11200010.54 Unspecified NONE
331995-05-03 12:38PSTYes???USGS11400010.58 Unspecified NONE
321995-05-03 12:29PSTYes???USGS11500010.62 Unspecified NONE
311995-05-03 12:20PSTYes???USGS11900010.66 Unspecified NONE
301995-05-03 12:10PSTYes???USGS11900010.71 Unspecified NONE
291995-05-03 11:02PSTYes???USGS12500011.17 Unspecified NONE
281995-05-03 10:39PSTYes???USGS12600011.35 Unspecified NONE
271995-05-03 10:29PSTYes???USGS12600011.44 Unspecified NONE
261995-05-03 10:18PSTYes???USGS12900011.55 Unspecified NONE
251995-05-03 10:08PSTYes???USGS12900011.64 Unspecified NONE
241995-05-03 09:58PSTYes???USGS13100011.73 Unspecified NONE
231995-05-03 09:49PSTYes???USGS13100011.82 Unspecified NONE
221995-05-03 09:41PSTYes???USGS13200011.90 Unspecified NONE
211995-05-02 13:56PSTYes???USGS6850010.86 Unspecified NONE
201995-05-02 13:47PSTYes???USGS7620010.76 Unspecified NONE
191995-05-02 13:38PSTYes???USGS8160010.69 Unspecified NONE
181995-05-02 13:29PSTYes???USGS8800010.62 Unspecified NONE
171995-05-02 13:19PSTYes???USGS9010010.58 Unspecified NONE
161995-05-02 13:09PSTYes???USGS9700010.54 Unspecified NONE
151995-05-02 13:00PSTYes???USGS9710010.51 Unspecified NONE
141995-05-02 12:01PSTYes???USGS11200010.63 Unspecified NONE
131995-05-02 11:51PSTYes???USGS11600010.67 Unspecified NONE
121995-05-02 11:41PSTYes???USGS11300010.72 Unspecified NONE
111995-05-02 11:31PSTYes???USGS11500010.77 Unspecified NONE
101995-05-02 11:21PSTYes???USGS11600010.83 Unspecified NONE
91995-05-02 11:12PSTYes???USGS11500010.88 Unspecified NONE
81995-05-02 11:03PSTYes???USGS11900010.95 Unspecified NONE
71995-05-02 10:54PSTYes???USGS11600011.02 Unspecified NONE
61995-05-02 10:44PSTYes???USGS12100011.09 Unspecified NONE
51995-05-02 10:24PSTYes???USGS12100011.25 Unspecified NONE
41995-05-02 10:13PSTYes???USGS12400011.34 Unspecified NONE
31995-05-02 10:03PSTYes???USGS12400011.43 Unspecified NONE
21995-05-02 09:52PSTYes???USGS12600011.53 Unspecified NONE
11995-05-02 09:32PSTYes???USGS12800011.72 Unspecified NONE